Time;durP1;ratioP1;P1;durP2;ratioP2;P2;SDS_P1;SDS_P2;PMS_P1;PMS_P2;Temp;Humidity;BMP_temperature;BMP_pressure;BME280_temperature;BME280_humidity;BME280_pressure;Samples;Min_cycle;Max_cycle;Signal;HPM_P1;HPM_P2
2021/03/27 00:00:05;;;;;;;16.70;10.67;;;;;;;5.79;47.40;100566.00;5016691;28;20024;-77
2021/03/27 00:02:38;;;;;;;15.83;10.63;;;;;;;5.69;47.66;100556.25;5016694;28;20049;-76
2021/03/27 00:05:21;;;;;;;17.87;10.70;;;;;;;5.66;47.65;100542.56;5015397;28;20475;-76
2021/03/27 00:07:59;;;;;;;16.07;10.47;;;;;;;5.65;47.18;100546.97;5015483;28;20345;-76
2021/03/27 00:10:31;;;;;;;15.37;10.63;;;;;;;5.61;47.23;100531.63;5016509;28;20060;-76
2021/03/27 00:12:59;;;;;;;;;;;;;;;5.68;47.73;100566.84;5015835;28;20033;-76
2021/03/27 00:15:40;;;;;;;15.87;10.97;;;;;;;5.34;47.41;100501.41;5016264;28;20005;-76
2021/03/27 00:18:28;;;;;;;18.00;11.47;;;;;;;5.69;47.84;100558.88;5015162;28;20033;-76
2021/03/27 00:20:56;;;;;;;19.73;12.67;;;;;;;5.69;47.39;100558.88;5016406;28;20321;-75
2021/03/27 00:23:28;;;;;;;20.10;13.40;;;;;;;5.66;47.56;100558.28;5016366;28;20421;-76
2021/03/27 00:26:00;;;;;;;25.70;15.98;;;;;;;5.61;47.83;100558.66;5016187;28;20088;-76
2021/03/27 00:28:43;;;;;;;24.67;14.13;;;;;;;5.05;47.96;100476.66;5016380;28;20403;-76
2021/03/27 00:31:11;;;;;;;18.33;12.53;;;;;;;5.58;47.85;100558.88;5016176;28;20056;-76
2021/03/27 00:33:42;;;;;;;18.53;12.53;;;;;;;5.56;47.83;100560.81;5016146;28;20062;-76
2021/03/27 00:36:22;;;;;;;21.35;12.60;;;;;;;5.53;47.85;100553.19;5015922;28;20099;-77
2021/03/27 00:38:54;;;;;;;17.97;11.10;;;;;;;5.37;47.34;100537.00;5015998;28;20440;-76
2021/03/27 00:41:26;;;;;;;19.03;10.77;;;;;;;5.41;47.99;100543.66;5015711;28;20060;-76
2021/03/27 00:43:57;;;;;;;;;;;;;;;5.32;48.43;100557.50;5016387;28;20041;-76
2021/03/27 00:46:24;;;;;;;19.63;11.53;;;;;;;5.41;47.82;100564.63;5015617;28;20012;-76
2021/03/27 00:49:06;;;;;;;16.17;11.10;;;;;;;5.39;48.19;100567.38;5014728;28;20376;-76
2021/03/27 00:51:38;;;;;;;15.07;11.05;;;;;;;5.28;48.09;100549.03;5016504;28;20042;-76
2021/03/27 00:54:16;;;;;;;18.47;10.60;;;;;;;5.37;48.01;100564.03;5016093;28;20422;-76
2021/03/27 00:56:48;;;;;;;17.53;10.73;;;;;;;5.35;47.91;100562.47;5015673;28;20030;-76
2021/03/27 00:59:32;;;;;;;20.88;10.88;;;;;;;5.33;48.13;100559.16;5015458;28;20092;-76
2021/03/27 01:02:02;;;;;;;16.70;10.17;;;;;;;5.33;48.19;100556.53;5015479;28;20034;-76
2021/03/27 01:04:32;;;;;;;18.63;11.13;;;;;;;5.33;48.22;100561.78;5017045;28;20036;-76
2021/03/27 01:07:01;;;;;;;14.87;9.73;;;;;;;5.29;48.37;100560.34;5015686;28;20112;-76
2021/03/27 01:09:56;;;;;;;14.30;10.13;;;;;;;5.27;48.47;100560.47;5015209;28;20025;-76
2021/03/27 01:12:27;;;;;;;16.13;10.40;;;;;;;5.30;48.34;100564.63;5015456;28;20041;-76
2021/03/27 01:14:57;;;;;;;18.75;10.52;;;;;;;5.21;48.60;100560.94;5015430;28;20025;-76
2021/03/27 01:17:29;;;;;;;17.77;11.90;;;;;;;5.22;48.49;100567.00;5014107;28;20087;-76
2021/03/27 01:20:04;;;;;;;19.38;13.55;;;;;;;5.08;48.72;100545.31;5015260;28;20029;-76
2021/03/27 01:22:29;;;;;;;17.53;10.33;;;;;;;4.77;48.45;100504.13;5015122;28;20357;-76
2021/03/27 01:25:04;;;;;;;18.37;11.37;;;;;;;5.20;48.38;100558.41;5015081;28;20030;-76
2021/03/27 01:27:35;;;;;;;19.90;12.33;;;;;;;5.19;48.70;100561.97;5015355;28;20121;-76
2021/03/27 01:30:07;;;;;;;15.90;10.40;;;;;;;5.21;48.44;100563.56;5015350;28;20397;-76
2021/03/27 01:32:38;;;;;;;;;;;;;;;5.09;49.13;100560.06;5015558;28;20029;-76
2021/03/27 01:35:24;;;;;;;19.33;11.90;;;;;;;4.77;48.82;100499.75;5013736;28;19917;-76
2021/03/27 01:37:58;;;;;;;20.60;12.73;;;;;;;5.12;48.71;100548.53;5015123;28;20341;-76
2021/03/27 01:40:39;;;;;;;19.20;12.73;;;;;;;4.70;48.73;100482.84;5014836;28;20439;-76
2021/03/27 01:43:24;;;;;;;19.23;12.23;;;;;;;5.07;48.70;100553.28;5014945;28;20030;-76
2021/03/27 01:45:55;;;;;;;22.27;13.17;;;;;;;5.17;48.52;100566.50;5014817;28;20037;-76
2021/03/27 01:48:37;;;;;;;19.17;12.90;;;;;;;5.08;48.96;100562.81;5014862;28;20053;-76
2021/03/27 01:51:20;;;;;;;24.10;13.27;;;;;;;4.76;48.98;100503.31;5014807;28;20026;-76
2021/03/27 01:53:54;;;;;;;23.87;14.17;;;;;;;4.90;48.65;100519.72;5014933;28;20029;-76
2021/03/27 01:56:59;;;;;;;20.37;11.50;;;;;;;5.11;48.94;100563.41;5013608;28;20041;-76
2021/03/27 01:59:38;;;;;;;17.03;11.73;;;;;;;5.11;48.83;100566.03;5013750;28;20030;-76
2021/03/27 02:02:22;;;;;;;17.20;10.93;;;;;;;5.08;49.08;100562.81;5014714;28;20026;-76
2021/03/27 02:04:58;;;;;;;17.00;10.77;;;;;;;5.05;49.07;100566.50;5030136;28;20463;-76
2021/03/27 02:07:43;;;;;;;21.77;12.07;;;;;;;5.04;48.93;100559.59;5014677;28;20030;-76
2021/03/27 02:10:26;;;;;;;20.40;13.03;;;;;;;4.66;48.95;100506.75;5014801;28;20036;-76
2021/03/27 02:12:57;;;;;;;17.13;12.77;;;;;;;5.01;48.91;100574.69;5014726;28;20330;-76
2021/03/27 02:15:38;;;;;;;15.48;11.02;;;;;;;4.91;49.35;100573.72;5014566;28;20429;-76
2021/03/27 02:18:13;;;;;;;14.70;10.37;;;;;;;4.83;49.06;100579.53;5014517;28;20087;-76
2021/03/27 02:20:54;;;;;;;15.13;9.43;;;;;;;4.81;49.16;100580.63;5015737;28;20452;-76
2021/03/27 02:23:41;;;;;;;12.60;8.63;;;;;;;4.70;49.28;100584.03;5018294;28;20356;-76
2021/03/27 02:26:23;;;;;;;14.70;9.37;;;;;;;4.58;49.90;100572.72;5018367;28;20084;-76
2021/03/27 02:29:29;;;;;;;17.30;9.85;;;;;;;4.55;49.57;100582.56;5017577;28;20088;-76
2021/03/27 02:32:12;;;;;;;18.77;10.70;;;;;;;4.19;50.05;100528.56;5018257;28;20088;-76
2021/03/27 02:34:44;;;;;;;19.03;10.77;;;;;;;4.53;49.78;100584.47;5018315;28;20033;-76
2021/03/27 02:37:16;;;;;;;21.00;11.82;;;;;;;3.95;49.84;100490.25;5018158;28;20109;-76
2021/03/27 02:39:53;;;;;;;18.58;11.05;;;;;;;4.55;49.84;100590.41;5018347;28;20080;-76
2021/03/27 02:42:24;;;;;;;21.67;12.57;;;;;;;4.59;49.54;100591.84;5017929;28;20030;-76
2021/03/27 02:44:53;;;;;;;13.60;9.15;;;;;;;4.57;49.60;100589.34;5018243;28;20034;-76
2021/03/27 02:48:03;;;;;;;15.90;10.13;;;;;;;4.59;50.05;100595.31;5017926;28;20029;-76
2021/03/27 02:50:43;;;;;;;16.00;9.27;;;;;;;4.59;50.12;100602.31;5007554;28;20065;-76
2021/03/27 02:53:35;;;;;;;16.57;10.63;;;;;;;4.55;49.92;100595.66;5016720;28;20029;-76
2021/03/27 02:56:22;;;;;;;21.23;12.05;;;;;;;4.27;50.19;100566.28;5016945;28;20036;-76
2021/03/27 02:59:12;;;;;;;22.10;12.60;;;;;;;4.44;50.55;100599.03;5018009;28;20034;-76
2021/03/27 03:01:55;;;;;;;24.03;12.50;;;;;;;4.44;50.20;100604.25;5017993;28;20399;-76
2021/03/27 03:04:53;;;;;;;28.70;14.70;;;;;;;4.41;50.20;100600.06;5018011;28;20038;-76
2021/03/27 03:07:37;;;;;;;21.57;12.17;;;;;;;4.44;49.98;100605.09;5011132;28;20038;-76
2021/03/27 03:10:21;;;;;;;20.43;12.73;;;;;;;4.35;50.22;100592.69;5016399;28;20026;-76
2021/03/27 03:13:15;;;;;;;21.03;13.33;;;;;;;4.41;50.15;100605.31;5017599;28;20117;-76
2021/03/27 03:16:07;;;;;;;25.07;12.67;;;;;;;4.41;50.26;100604.47;5017595;28;20037;-76
2021/03/27 03:18:39;;;;;;;28.27;15.05;;;;;;;4.38;50.06;100607.31;5017572;28;20033;-76
2021/03/27 03:21:25;;;;;;;20.20;12.03;;;;;;;4.31;50.22;100599.09;5017238;28;20025;-76
2021/03/27 03:24:38;;;;;;;22.37;12.60;;;;;;;4.25;50.26;100599.53;5016286;28;20029;-76
2021/03/27 03:27:30;;;;;;;24.97;12.83;;;;;;;4.30;50.42;100602.66;5011979;28;20425;-76
2021/03/27 03:30:26;;;;;;;22.92;11.95;;;;;;;4.23;50.57;100606.66;5017290;28;20443;-76
2021/03/27 03:33:10;;;;;;;24.03;13.00;;;;;;;4.24;50.25;100604.88;5016649;28;20041;-76
2021/03/27 03:36:10;;;;;;;22.73;11.83;;;;;;;4.18;50.27;100608.78;5016127;28;20360;-76
2021/03/27 03:39:07;;;;;;;19.93;11.90;;;;;;;4.19;50.75;100610.44;4995695;28;20443;-76
2021/03/27 03:41:38;;;;;;;17.73;11.53;;;;;;;4.21;50.17;100611.16;5017324;28;20108;-76
2021/03/27 03:44:14;;;;;;;30.80;15.68;;;;;;;4.20;49.87;100611.28;5018015;28;20029;-76
2021/03/27 03:46:54;;;;;;;27.73;14.00;;;;;;;3.58;51.03;100559.94;5017485;28;20034;-76
2021/03/27 03:49:28;;;;;;;25.43;14.27;;;;;;;3.63;51.31;100585.72;5016828;28;20421;-76
2021/03/27 03:52:00;;;;;;;17.93;11.47;;;;;;;3.81;51.12;100610.56;5015711;28;20425;-76
2021/03/27 03:54:47;;;;;;;18.48;10.52;;;;;;;3.81;51.46;100608.78;5016665;28;20155;-76
2021/03/27 03:57:30;;;;;;;19.20;11.63;;;;;;;3.87;51.29;100611.91;5016609;28;20088;-76
2021/03/27 04:00:10;;;;;;;18.17;11.47;;;;;;;3.92;50.55;100620.25;5015581;28;20435;-76
2021/03/27 04:03:05;;;;;;;17.33;10.97;;;;;;;3.95;50.90;100617.44;5016683;28;20037;-76
2021/03/27 04:05:39;;;;;;;17.40;10.30;;;;;;;3.97;50.63;100612.94;5009073;28;20041;-76
2021/03/27 04:08:17;;;;;;;20.50;11.60;;;;;;;3.98;50.69;100620.66;5016498;28;20444;-76
2021/03/27 04:10:46;;;;;;;22.70;13.20;;;;;;;3.76;50.31;100589.16;5016417;28;20029;-76
2021/03/27 04:13:29;;;;;;;18.60;11.30;;;;;;;3.91;50.77;100629.88;5016357;28;20052;-76
2021/03/27 04:15:58;;;;;;;17.57;11.53;;;;;;;3.31;50.41;100548.81;5016489;28;20030;-76
2021/03/27 04:18:39;;;;;;;18.63;12.00;;;;;;;3.22;50.98;100552.91;5016175;28;20416;-76
2021/03/27 04:21:08;;;;;;;21.00;11.53;;;;;;;3.35;51.11;100597.25;5016012;28;20030;-76
2021/03/27 04:23:40;;;;;;;17.03;10.93;;;;;;;3.67;51.16;100636.78;5016163;28;20352;-76
2021/03/27 04:26:22;;;;;;;17.00;11.23;;;;;;;3.68;51.03;100646.31;5016147;28;20029;-76
2021/03/27 04:28:56;;;;;;;;;;;;;;;3.49;51.13;100642.34;5016707;28;20410;-76
2021/03/27 04:31:28;;;;;;;19.57;11.77;;;;;;;3.60;51.09;100651.22;5015993;28;20288;-76
2021/03/27 04:33:57;;;;;;;22.87;13.40;;;;;;;3.62;51.23;100652.78;5015866;28;20037;-76
2021/03/27 04:36:30;;;;;;;21.20;13.03;;;;;;;3.65;51.40;100646.53;5014764;28;20096;-76
2021/03/27 04:39:26;;;;;;;20.77;13.10;;;;;;;3.61;50.71;100647.66;5016107;28;20348;-76
2021/03/27 04:42:07;;;;;;;22.80;14.17;;;;;;;3.73;50.93;100663.34;5004609;28;20041;-76
2021/03/27 04:45:13;;;;;;;25.45;14.63;;;;;;;3.74;51.32;100658.97;5015362;28;20348;-76
2021/03/27 04:48:00;;;;;;;28.83;15.10;;;;;;;3.78;51.05;100666.47;5015518;28;20033;-76
2021/03/27 04:50:38;;;;;;;21.83;13.80;;;;;;;3.49;51.08;100668.47;5014658;28;20076;-76
2021/03/27 04:53:14;;;;;;;25.07;15.53;;;;;;;3.50;51.64;100677.13;5014515;28;20059;-76
2021/03/27 04:55:52;;;;;;;24.27;16.00;;;;;;;3.55;51.73;100676.81;5015736;28;20029;-76
2021/03/27 04:58:29;;;;;;;31.43;16.10;;;;;;;3.57;51.89;100688.00;5015535;28;20092;-76
2021/03/27 05:01:11;;;;;;;31.37;19.13;;;;;;;3.55;51.41;100682.88;5015525;28;20111;-76
2021/03/27 05:03:43;;;;;;;32.47;18.63;;;;;;;3.55;51.23;100674.22;5015571;28;20026;-76
2021/03/27 05:06:21;;;;;;;32.85;19.33;;;;;;;3.40;51.42;100648.22;5015569;28;20030;-76
2021/03/27 05:09:12;;;;;;;28.67;17.67;;;;;;;3.77;51.49;100693.53;5015541;28;20029;-76
2021/03/27 05:11:43;;;;;;;24.17;14.67;;;;;;;3.87;50.75;100693.72;5015387;28;20071;-76
2021/03/27 05:14:11;;;;;;;34.13;18.83;;;;;;;3.92;51.01;100691.63;5015770;28;20471;-76
2021/03/27 05:16:45;;;;;;;28.83;16.07;;;;;;;3.76;50.84;100665.75;5015743;28;20367;-76
2021/03/27 05:19:16;;;;;;;24.43;15.37;;;;;;;3.82;51.00;100688.00;5015158;28;20033;-76
2021/03/27 05:21:54;;;;;;;20.73;13.40;;;;;;;3.96;50.74;100693.09;5015304;28;20030;-76
2021/03/27 05:24:34;;;;;;;31.87;16.90;;;;;;;4.02;50.85;100697.88;5014991;28;20029;-76
2021/03/27 05:27:21;;;;;;;26.30;14.80;;;;;;;4.09;50.36;100698.28;5014218;28;20040;-76
2021/03/27 05:30:20;;;;;;;32.20;19.87;;;;;;;4.08;50.44;100701.84;5015356;28;20030;-76
2021/03/27 05:32:58;;;;;;;36.20;21.90;;;;;;;4.02;50.86;100702.28;5014981;28;20407;-76
2021/03/27 05:35:41;;;;;;;40.43;23.57;;;;;;;3.83;50.99;100674.00;5014984;28;20036;-76
2021/03/27 05:38:34;;;;;;;30.90;19.33;;;;;;;3.86;50.72;100668.56;5014993;28;20092;-76
2021/03/27 05:41:15;;;;;;;46.43;26.90;;;;;;;4.23;50.41;100713.00;5014919;28;20041;-76
2021/03/27 05:43:43;;;;;;;44.00;25.90;;;;;;;4.31;50.20;100710.66;5014883;28;20029;-76
2021/03/27 05:46:11;;;;;;;42.27;25.90;;;;;;;4.41;50.02;100709.06;5014883;28;20087;-76
2021/03/27 05:48:39;;;;;;;36.97;22.90;;;;;;;4.51;49.96;100709.28;5014881;28;20478;-76
2021/03/27 05:51:42;;;;;;;35.37;21.20;;;;;;;4.61;50.09;100712.88;5014856;28;20034;-76
2021/03/27 05:54:25;;;;;;;31.90;19.98;;;;;;;4.72;49.99;100718.19;5014940;28;20029;-76
2021/03/27 05:57:16;;;;;;;40.13;24.87;;;;;;;4.88;49.55;100716.09;5017900;28;20026;-76
2021/03/27 06:00:06;;;;;;;36.70;22.77;;;;;;;5.00;49.53;100723.03;5018848;28;20026;-76
2021/03/27 06:03:12;;;;;;;30.77;20.47;;;;;;;5.11;49.83;100722.25;5018780;28;20085;-76
2021/03/27 06:06:07;;;;;;;37.83;22.27;;;;;;;5.22;49.59;100717.06;5018645;28;20463;-76
2021/03/27 06:08:44;;;;;;;30.47;19.73;;;;;;;5.33;49.22;100716.28;5018952;28;20026;-76
2021/03/27 06:11:28;;;;;;;56.83;30.23;;;;;;;5.40;49.35;100715.69;5017489;28;20034;-76
2021/03/27 06:14:32;;;;;;;39.63;22.73;;;;;;;5.48;49.20;100722.97;5017578;28;20060;-76
2021/03/27 06:17:32;;;;;;;42.37;25.20;;;;;;;5.58;49.13;100721.31;5016966;28;20038;-76
2021/03/27 06:20:06;;;;;;;33.50;21.83;;;;;;;5.70;48.55;100728.22;5019740;28;20025;-76
2021/03/27 06:22:41;;;;;;;36.10;22.77;;;;;;;5.81;48.82;100726.56;5020220;28;20491;-76
2021/03/27 06:25:44;;;;;;;31.93;21.33;;;;;;;5.89;48.84;100726.81;5018406;28;20444;-76
2021/03/27 06:28:28;;;;;;;34.80;20.83;;;;;;;6.02;48.79;100730.22;5018550;28;20041;-76
2021/03/27 06:31:26;;;;;;;38.30;21.63;;;;;;;6.07;48.47;100719.34;5018527;28;20030;-76
2021/03/27 06:34:25;;;;;;;29.63;20.23;;;;;;;6.23;48.36;100722.44;5018349;28;20344;-76
2021/03/27 06:36:56;;;;;;;31.00;20.67;;;;;;;6.37;47.90;100727.41;5018218;28;20467;-76
2021/03/27 06:40:04;;;;;;;29.77;21.43;;;;;;;6.51;48.18;100721.06;5018203;28;20041;-76
2021/03/27 06:42:43;;;;;;;33.43;23.40;;;;;;;6.65;48.07;100729.50;5017937;28;20030;-76
2021/03/27 06:45:27;;;;;;;28.03;18.47;;;;;;;6.76;47.58;100722.59;5016820;28;20041;-76
2021/03/27 06:48:01;;;;;;;33.87;20.40;;;;;;;6.89;47.10;100724.06;5018065;28;20037;-76
2021/03/27 06:50:52;;;;;;;30.80;19.80;;;;;;;7.05;46.67;100715.78;5016693;28;20431;-75
2021/03/27 06:53:28;;;;;;;21.90;12.63;;;;;;;6.79;46.03;100678.53;5017790;28;20026;-75
2021/03/27 06:56:12;;;;;;;23.13;14.47;;;;;;;7.31;45.27;100724.94;5017880;28;20091;-76
2021/03/27 06:58:55;;;;;;;27.17;18.00;;;;;;;7.43;44.60;100727.50;5017817;28;20034;-75
2021/03/27 07:01:42;;;;;;;27.33;16.73;;;;;;;7.53;45.42;100729.25;5017749;28;20038;-76
2021/03/27 07:04:28;;;;;;;21.43;13.93;;;;;;;7.68;44.72;100734.19;5017727;28;20026;-76
2021/03/27 07:07:21;;;;;;;19.73;13.63;;;;;;;7.77;44.95;100723.72;5017075;28;20053;-76
2021/03/27 07:10:17;;;;;;;18.33;12.20;;;;;;;7.87;44.62;100729.84;5017719;28;20429;-76
2021/03/27 07:12:52;;;;;;;18.35;12.73;;;;;;;7.95;45.14;100735.28;5016496;28;20037;-75
2021/03/27 07:15:49;;;;;;;20.53;11.93;;;;;;;7.94;44.94;100707.31;5017487;28;20079;-76
2021/03/27 07:18:52;;;;;;;20.20;13.37;;;;;;;8.23;44.79;100733.75;5016898;28;20042;-75
2021/03/27 07:21:46;;;;;;;22.30;14.13;;;;;;;7.97;44.21;100674.66;5016329;28;20444;-76
2021/03/27 07:24:49;;;;;;;21.90;13.97;;;;;;;8.51;43.84;100739.25;5016194;28;20042;-75
2021/03/27 07:27:33;;;;;;;17.87;12.57;;;;;;;8.64;44.36;100744.25;5017185;28;20033;-76
2021/03/27 07:30:29;;;;;;;23.50;15.30;;;;;;;8.73;43.62;100728.47;5017396;28;20029;-76
2021/03/27 07:32:57;;;;;;;20.50;12.50;;;;;;;8.83;43.49;100739.84;5010108;28;20045;-76
2021/03/27 07:35:41;;;;;;;21.20;12.27;;;;;;;8.94;43.13;100748.63;5017066;28;20061;-76
2021/03/27 07:38:21;;;;;;;21.27;14.13;;;;;;;9.05;42.91;100751.94;5017210;28;20109;-76
2021/03/27 07:40:56;;;;;;;17.53;11.93;;;;;;;8.98;42.52;100726.31;5016907;28;20026;-76
2021/03/27 07:43:40;;;;;;;18.85;12.88;;;;;;;9.29;42.48;100751.53;5016654;28;20042;-76
2021/03/27 07:46:15;;;;;;;23.13;14.80;;;;;;;9.39;40.57;100747.06;5015768;28;20101;-75
2021/03/27 07:48:43;;;;;;;18.48;12.85;;;;;;;9.46;41.82;100756.06;5015815;28;20083;-76
2021/03/27 07:51:30;;;;;;;22.02;14.60;;;;;;;9.60;41.78;100752.16;5016677;28;20029;-76
2021/03/27 07:54:01;;;;;;;19.58;13.48;;;;;;;9.65;41.46;100751.75;5016953;28;20029;-76
2021/03/27 07:56:54;;;;;;;21.52;13.77;;;;;;;9.83;41.56;100736.88;5015678;28;20129;-77
2021/03/27 07:59:19;;;;;;;;;;;;;;;9.93;40.82;100747.38;5017001;28;20037;-76
2021/03/27 08:01:56;;;;;;;19.05;13.68;;;;;;;10.12;40.83;100742.84;5016402;28;19932;-76
2021/03/27 08:05:19;;;;;;;23.33;15.25;;;;;;;10.26;40.44;100738.94;5016503;28;20069;-76
2021/03/27 08:08:03;;;;;;;23.88;15.38;;;;;;;10.42;40.56;100743.59;4975816;28;20035;-76
2021/03/27 08:10:28;;;;;;;21.35;15.20;;;;;;;10.53;40.36;100750.50;4975461;28;20050;-76
2021/03/27 08:13:19;;;;;;;23.20;15.68;;;;;;;10.48;39.80;100740.38;5004648;28;20033;-76
2021/03/27 08:15:59;;;;;;;21.80;14.55;;;;;;;10.68;39.88;100749.00;5015346;28;20059;-76
2021/03/27 08:19:10;;;;;;;23.35;14.13;;;;;;;10.78;40.53;100747.97;5015096;28;20029;-76
2021/03/27 08:22:03;;;;;;;18.80;12.88;;;;;;;10.90;39.26;100743.28;5016320;28;20026;-76
2021/03/27 08:24:31;;;;;;;20.85;13.40;;;;;;;11.00;39.81;100744.03;5015054;28;20111;-76
2021/03/27 08:27:23;;;;;;;24.27;14.73;;;;;;;11.18;39.18;100743.22;5016032;28;20033;-76
2021/03/27 08:30:22;;;;;;;22.27;14.18;;;;;;;11.28;38.27;100746.59;5015056;28;20036;-76
2021/03/27 08:33:12;;;;;;;22.35;15.50;;;;;;;11.39;38.54;100749.00;5016015;28;20018;-76
2021/03/27 08:35:40;;;;;;;20.23;13.65;;;;;;;11.54;38.36;100738.69;5016115;28;20403;-76
2021/03/27 08:38:08;;;;;;;19.48;13.05;;;;;;;11.62;38.68;100733.47;5015927;28;20505;-76
2021/03/27 08:41:15;;;;;;;16.80;11.65;;;;;;;11.76;38.13;100743.47;5015813;28;20084;-76
2021/03/27 08:44:02;;;;;;;17.60;11.25;;;;;;;11.59;38.08;100679.06;4974956;28;20504;-76
2021/03/27 08:46:38;;;;;;;23.20;15.85;;;;;;;12.12;38.16;100733.63;5013336;28;20127;-76
2021/03/27 08:49:22;;;;;;;19.95;13.05;;;;;;;11.84;37.66;100663.34;5015834;28;20172;-77
2021/03/27 08:51:50;;;;;;;16.83;10.98;;;;;;;12.42;37.00;100734.91;5015848;28;20115;-77
2021/03/27 08:54:33;;;;;;;14.05;9.95;;;;;;;12.56;35.78;100733.44;5015471;28;20032;-77
2021/03/27 08:57:35;;;;;;;18.00;10.52;;;;;;;12.64;36.13;100731.69;5014667;28;20025;-75
2021/03/27 09:00:38;;;;;;;14.07;9.85;;;;;;;12.71;35.81;100730.03;5014736;28;20099;-75
2021/03/27 09:03:15;;;;;;;14.48;10.23;;;;;;;12.78;36.92;100722.25;5015638;28;20117;-76
2021/03/27 09:05:47;;;;;;;14.68;11.18;;;;;;;12.81;35.97;100686.66;5014469;28;20033;-75
2021/03/27 09:08:50;;;;;;;18.20;11.35;;;;;;;13.20;35.56;100718.66;5015417;28;20064;-75
2021/03/27 09:11:50;;;;;;;14.13;9.80;;;;;;;13.36;34.91;100718.66;5015427;28;20022;-75
2021/03/27 09:14:28;;;;;;;14.82;10.18;;;;;;;13.57;34.97;100712.84;5014211;28;20091;-76
2021/03/27 09:17:12;;;;;;;14.80;10.80;;;;;;;13.73;34.70;100704.84;5014266;28;20087;-76
2021/03/27 09:19:46;;;;;;;16.55;10.27;;;;;;;13.82;34.39;100708.31;5015307;28;20026;-76
2021/03/27 09:22:23;;;;;;;15.77;10.40;;;;;;;13.97;34.16;100702.13;5015159;28;20475;-76
2021/03/27 09:25:08;;;;;;;14.10;9.55;;;;;;;14.15;32.88;100690.47;5015234;28;20029;-76
2021/03/27 09:27:51;;;;;;;14.25;9.02;;;;;;;14.24;32.39;100698.22;5013931;28;20026;-77
2021/03/27 09:30:35;;;;;;;13.38;10.32;;;;;;;14.30;33.20;100694.88;5013439;28;20044;-75
2021/03/27 09:33:25;;;;;;;19.17;11.07;;;;;;;14.42;32.77;100682.03;5014550;28;20409;-76
2021/03/27 09:36:03;;;;;;;17.55;10.07;;;;;;;14.56;32.68;100675.16;5015124;28;20030;-75
2021/03/27 09:38:45;;;;;;;12.63;8.27;;;;;;;14.55;32.31;100653.06;5014752;28;20030;-76
2021/03/27 09:41:37;;;;;;;17.60;9.48;;;;;;;14.93;32.14;100672.56;5015197;28;20388;-75
2021/03/27 09:44:12;;;;;;;10.88;7.38;;;;;;;15.16;32.25;100666.41;5014870;28;20030;-76
2021/03/27 09:46:52;;;;;;;26.95;10.52;;;;;;;15.42;31.61;100666.81;5013845;28;20455;-76
2021/03/27 09:49:36;;;;;;;11.50;7.70;;;;;;;15.55;31.57;100672.31;5015027;28;20061;-76
2021/03/27 09:52:10;;;;;;;10.43;6.93;;;;;;;15.73;30.90;100669.34;5014132;28;20030;-76
2021/03/27 09:54:58;;;;;;;11.93;7.07;;;;;;;15.91;30.32;100671.63;5013567;28;20037;-78
2021/03/27 09:57:44;;;;;;;9.23;7.75;;;;;;;15.75;27.62;100650.53;5014523;28;20109;-77
2021/03/27 10:00:37;;;;;;;10.32;6.93;;;;;;;15.80;30.04;100648.97;5014867;28;20080;-77
2021/03/27 10:03:24;;;;;;;8.48;6.57;;;;;;;15.96;28.45;100628.47;5014677;28;20109;-77
2021/03/27 10:06:27;;;;;;;20.60;14.75;;;;;;;16.37;29.64;100650.91;5014698;28;20041;-77
2021/03/27 10:09:11;;;;;;;15.93;10.88;;;;;;;16.70;29.11;100647.78;5014982;28;20060;-76
2021/03/27 10:11:40;;;;;;;35.03;19.83;;;;;;;16.86;29.55;100634.16;5014724;28;20030;-76
2021/03/27 10:14:24;;;;;;;25.42;18.10;;;;;;;17.04;29.17;100628.38;5013675;28;20128;-76
2021/03/27 10:17:20;;;;;;;26.40;17.20;;;;;;;17.13;28.57;100624.56;5014764;28;20088;-76
2021/03/27 10:19:59;;;;;;;29.65;18.73;;;;;;;17.25;28.29;100636.34;5005752;28;20126;-77
2021/03/27 10:22:37;;;;;;;10.32;7.03;;;;;;;17.45;27.54;100636.47;5014432;28;20373;-76
2021/03/27 10:25:15;;;;;;;18.00;11.10;;;;;;;17.69;27.45;100644.03;5014464;28;20034;-77
2021/03/27 10:27:51;;;;;;;9.38;6.85;;;;;;;17.73;26.12;100615.91;5014653;28;20076;-78
2021/03/27 10:30:25;;;;;;;10.05;7.85;;;;;;;18.08;26.42;100623.91;5014444;28;20037;-77
2021/03/27 10:33:28;;;;;;;8.32;6.28;;;;;;;18.22;26.16;100619.41;5014281;28;20032;-78
2021/03/27 10:36:18;;;;;;;7.88;5.00;;;;;;;18.16;25.98;100583.63;4998028;28;20401;-75
2021/03/27 10:39:05;;;;;;;9.38;6.50;;;;;;;18.54;25.93;100613.31;5014080;28;20046;-77
2021/03/27 10:41:39;;;;;;;12.45;8.68;;;;;;;18.66;26.31;100616.25;5014964;28;20026;-77
2021/03/27 10:44:17;;;;;;;7.13;5.40;;;;;;;18.71;25.19;100605.75;5017949;28;20499;-78
2021/03/27 10:47:01;;;;;;;11.73;7.68;;;;;;;18.88;26.05;100606.19;5017101;28;20517;-78
2021/03/27 10:49:36;;;;;;;8.27;5.35;;;;;;;19.05;24.48;100612.75;5017835;28;20425;-77
2021/03/27 10:52:24;;;;;;;8.07;4.97;;;;;;;18.91;24.61;100606.59;5017913;28;20022;-77
2021/03/27 10:55:15;;;;;;;11.02;8.48;;;;;;;19.16;25.12;100597.91;5017996;28;20041;-78
2021/03/27 10:58:17;;;;;;;24.20;15.00;;;;;;;19.47;24.97;100595.41;5017916;28;20058;-77
2021/03/27 11:01:01;;;;;;;16.42;10.38;;;;;;;19.31;24.81;100593.16;5017681;28;20030;-80
2021/03/27 11:03:54;;;;;;;16.40;8.88;;;;;;;19.48;24.90;100596.22;5016581;28;20034;-77
2021/03/27 11:06:22;;;;;;;14.32;8.77;;;;;;;19.49;24.60;100593.34;5017532;28;20034;-77
2021/03/27 11:09:09;;;;;;;7.57;6.53;;;;;;;19.40;24.05;100589.25;5017566;28;20046;-76
2021/03/27 11:11:46;;;;;;;7.88;6.00;;;;;;;19.15;23.70;100588.25;5017428;28;20030;-77
2021/03/27 11:14:45;;;;;;;6.47;5.05;;;;;;;19.54;22.51;100577.50;5017618;28;20100;-76
2021/03/27 11:17:57;;;;;;;7.47;5.65;;;;;;;19.79;22.61;100564.19;5017382;28;20105;-77
2021/03/27 11:20:38;;;;;;;12.52;8.18;;;;;;;20.10;23.05;100566.13;5017420;28;20026;-77
2021/03/27 11:23:42;;;;;;;25.23;19.08;;;;;;;20.13;23.20;100554.97;5017244;28;20041;-77
2021/03/27 11:26:29;;;;;;;9.27;6.90;;;;;;;20.22;22.56;100564.41;5016421;28;20037;-77
2021/03/27 11:29:28;;;;;;;17.65;12.77;;;;;;;20.31;22.09;100556.91;5017583;28;20049;-77
2021/03/27 11:32:21;;;;;;;6.93;5.22;;;;;;;20.49;22.60;100553.50;5016416;28;20045;-76
2021/03/27 11:34:59;;;;;;;8.40;6.25;;;;;;;20.65;21.96;100531.50;5017347;28;20025;-77
2021/03/27 11:37:35;;;;;;;8.82;6.07;;;;;;;20.95;21.52;100545.09;5015940;28;20348;-77
2021/03/27 11:40:24;;;;;;;7.30;6.00;;;;;;;20.94;22.15;100536.22;5016969;28;20030;-75
2021/03/27 11:42:59;;;;;;;8.88;7.15;;;;;;;21.06;21.53;100543.53;5017013;28;20034;-76
2021/03/27 11:45:27;;;;;;;7.78;5.50;;;;;;;21.06;21.30;100543.53;5016752;28;20029;-76
2021/03/27 11:47:52;;;;;;;10.57;6.68;;;;;;;20.82;20.85;100540.66;5016868;28;20037;-76
2021/03/27 11:50:29;;;;;;;8.32;6.25;;;;;;;20.84;20.85;100543.94;5015627;28;20029;-78
2021/03/27 11:53:13;;;;;;;7.35;4.80;;;;;;;20.83;21.06;100539.63;5016785;28;20032;-76
2021/03/27 11:55:59;;;;;;;7.30;5.35;;;;;;;20.90;20.71;100513.53;5017005;28;20026;-76
2021/03/27 11:59:41;;;;;;;7.22;5.22;;;;;;;21.03;20.69;100543.97;5016616;28;20108;-78
2021/03/27 12:01:30;;;;;;;7.20;4.55;;;;;;;21.05;20.49;100529.28;5016425;28;20033;-76
2021/03/27 12:04:26;;;;;;;8.05;5.20;;;;;;;21.02;19.55;100518.16;5016485;28;20033;-77
2021/03/27 12:07:07;;;;;;;6.95;4.15;;;;;;;20.89;20.62;100529.88;5016558;28;20030;-77
2021/03/27 12:09:47;;;;;;;6.35;5.00;;;;;;;20.47;20.73;100481.28;5016235;28;20047;-78
2021/03/27 12:12:37;;;;;;;8.20;5.72;;;;;;;20.75;19.72;100526.44;5016500;28;20105;-76
2021/03/27 12:15:02;;;;;;;7.50;4.40;;;;;;;20.69;20.91;100527.34;5016451;28;20044;-77
2021/03/27 12:18:04;;;;;;;5.65;4.10;;;;;;;20.42;20.35;100496.41;5016268;28;20029;-75
2021/03/27 12:20:44;;;;;;;6.45;4.20;;;;;;;20.56;21.07;100511.34;5016287;28;20025;-79
2021/03/27 12:23:20;;;;;;;6.53;4.90;;;;;;;20.47;20.30;100507.31;5016269;28;20030;-78
2021/03/27 12:26:07;;;;;;;7.78;5.25;;;;;;;20.34;21.39;100510.88;5016487;28;20057;-76
2021/03/27 12:28:45;;;;;;;8.15;5.60;;;;;;;20.05;21.01;100503.44;5015914;28;20330;-78